Time;durP1;ratioP1;P1;durP2;ratioP2;P2;SDS_P1;SDS_P2;PMS_P1;PMS_P2;Temp;Humidity;BMP_temperature;BMP_pressure;BME280_temperature;BME280_humidity;BME280_pressure;Samples;Min_cycle;Max_cycle;Signal;HPM_P1;HPM_P2
2021/08/08 00:01:18;;;;;;;34.35;28.52;;;24.50;98.40;;;;;;5055136;28;20037;-82
2021/08/08 00:03:44;;;;;;;34.30;28.00;;;24.50;98.30;;;;;;5021278;28;20367;-83
2021/08/08 00:06:09;;;;;;;33.58;27.42;;;24.50;98.40;;;;;;5020530;28;20029;-83
2021/08/08 00:08:35;;;;;;;33.75;27.58;;;24.50;98.30;;;;;;5055142;28;20029;-83
2021/08/08 00:11:01;;;;;;;32.85;26.30;;;24.50;98.40;;;;;;5055324;28;20055;-82
2021/08/08 00:13:27;;;;;;;33.47;26.52;;;24.50;98.40;;;;;;5054783;28;20029;-83
2021/08/08 00:15:53;;;;;;;33.88;27.80;;;24.50;98.40;;;;;;5037454;28;20032;-84
2021/08/08 00:18:20;;;;;;;31.60;26.13;;;24.50;98.40;;;;;;5054643;28;20449;-84
2021/08/08 00:20:46;;;;;;;32.45;26.38;;;24.50;98.40;;;;;;5037364;28;20094;-83
2021/08/08 00:23:11;;;;;;;30.13;25.20;;;24.50;98.40;;;;;;5036570;28;20073;-83
2021/08/08 00:25:37;;;;;;;35.13;26.42;;;24.50;98.40;;;;;;5021066;28;20028;-83
2021/08/08 00:28:04;;;;;;;32.63;25.05;;;24.50;98.40;;;;;;5054912;28;20041;-83
2021/08/08 00:30:30;;;;;;;29.73;25.30;;;24.50;98.40;;;;;;5020039;28;20088;-83
2021/08/08 00:32:56;;;;;;;32.38;25.65;;;24.50;98.40;;;;;;5037023;28;20029;-83
2021/08/08 00:35:22;;;;;;;28.55;24.33;;;24.50;98.40;;;;;;5036598;28;20439;-83
2021/08/08 00:37:48;;;;;;;28.90;24.23;;;24.50;98.40;;;;;;5037694;28;20033;-83
2021/08/08 00:40:16;;;;;;;29.70;23.83;;;24.50;98.40;;;;;;5036569;28;20033;-84
2021/08/08 00:42:45;;;;;;;29.55;24.10;;;24.50;98.40;;;;;;5020797;28;20033;-83
2021/08/08 00:45:11;;;;;;;31.08;23.42;;;24.50;98.40;;;;;;5021853;28;20029;-86
2021/08/08 00:47:37;;;;;;;30.00;23.90;;;24.50;98.40;;;;;;5037071;28;20459;-83
2021/08/08 00:50:03;;;;;;;29.83;22.88;;;24.50;98.40;;;;;;5036773;28;20036;-83
2021/08/08 00:52:29;;;;;;;25.98;21.73;;;24.50;98.40;;;;;;5036483;28;20058;-83
2021/08/08 00:54:54;;;;;;;29.58;22.23;;;24.50;98.40;;;;;;5020516;28;20120;-83
2021/08/08 00:57:20;;;;;;;26.08;21.65;;;24.50;98.40;;;;;;5018985;28;20123;-83
2021/08/08 00:59:46;;;;;;;27.10;21.33;;;24.50;98.40;;;;;;5019803;28;20048;-83
2021/08/08 01:02:12;;;;;;;28.90;22.58;;;24.50;98.50;;;;;;5036854;28;20132;-83
2021/08/08 01:04:52;;;;;;;27.15;20.58;;;24.50;98.40;;;;;;5036844;28;20382;-83
2021/08/08 01:07:24;;;;;;;26.42;20.58;;;24.50;98.50;;;;;;5054169;28;20036;-84
2021/08/08 01:09:53;;;;;;;27.10;21.10;;;24.50;98.50;;;;;;5036703;28;20478;-83
2021/08/08 01:12:21;;;;;;;25.63;20.52;;;24.50;98.50;;;;;;5053723;28;20471;-83
2021/08/08 01:14:47;;;;;;;26.13;20.13;;;24.50;98.50;;;;;;5036850;28;20079;-83
2021/08/08 01:17:14;;;;;;;24.45;19.67;;;24.50;98.50;;;;;;5020149;28;20031;-83
2021/08/08 01:19:52;;;;;;;25.42;19.75;;;24.50;98.50;;;;;;5055669;28;20069;-83
2021/08/08 01:22:19;;;;;;;21.50;17.73;;;24.50;98.50;;;;;;5035987;28;20052;-83
2021/08/08 01:24:46;;;;;;;22.13;18.20;;;24.50;98.50;;;;;;5035845;28;20076;-83
2021/08/08 01:27:13;;;;;;;23.65;18.65;;;24.50;98.40;;;;;;5054013;28;20136;-83
2021/08/08 01:29:38;;;;;;;22.45;17.85;;;24.50;98.50;;;;;;5035765;28;20112;-83
2021/08/08 01:32:06;;;;;;;22.17;17.83;;;24.50;98.50;;;;;;5036486;28;20117;-83
2021/08/08 01:34:31;;;;;;;25.85;19.60;;;24.50;98.50;;;;;;5036704;28;20083;-83
2021/08/08 01:36:57;;;;;;;26.42;19.85;;;24.50;98.60;;;;;;5003441;28;20037;-83
2021/08/08 01:39:23;;;;;;;25.95;20.75;;;24.50;98.60;;;;;;5019424;28;20479;-83
2021/08/08 01:41:55;;;;;;;24.75;19.33;;;24.50;98.70;;;;;;5038352;28;20120;-83
2021/08/08 01:44:24;;;;;;;24.83;19.50;;;24.50;98.70;;;;;;5035809;28;20017;-84
2021/08/08 01:46:56;;;;;;;29.30;22.60;;;24.50;98.70;;;;;;5054688;28;20025;-83
2021/08/08 01:49:26;;;;;;;31.20;22.92;;;24.50;98.80;;;;;;5053015;28;20040;-83
2021/08/08 01:51:53;;;;;;;29.73;22.88;;;24.50;98.80;;;;;;5035255;28;20119;-83
2021/08/08 01:54:19;;;;;;;32.65;24.33;;;24.50;98.80;;;;;;5035490;28;20033;-85
2021/08/08 01:56:46;;;;;;;29.00;23.67;;;24.50;98.80;;;;;;5053305;28;20033;-83
2021/08/08 01:59:13;;;;;;;31.10;24.30;;;24.50;98.90;;;;;;5035448;28;20036;-83
2021/08/08 02:01:39;;;;;;;35.67;26.05;;;24.50;98.90;;;;;;5035615;28;20435;-83
2021/08/08 02:04:20;;;;;;;31.98;25.65;;;24.50;98.90;;;;;;5035532;28;20025;-83
2021/08/08 02:06:46;;;;;;;35.13;27.85;;;24.50;98.90;;;;;;5035708;28;20171;-83
2021/08/08 02:09:12;;;;;;;36.80;28.88;;;24.40;98.90;;;;;;5034797;28;20033;-84
2021/08/08 02:11:37;;;;;;;38.15;30.13;;;24.40;99.00;;;;;;5052626;28;20040;-83
2021/08/08 02:14:04;;;;;;;40.30;31.63;;;24.50;99.00;;;;;;5035433;28;20502;-83
2021/08/08 02:16:31;;;;;;;42.72;34.53;;;24.40;99.00;;;;;;5052664;28;20147;-83
2021/08/08 02:18:57;;;;;;;45.63;35.28;;;24.40;99.10;;;;;;5052850;28;20029;-83
2021/08/08 02:21:23;;;;;;;50.45;38.17;;;24.40;99.10;;;;;;5018608;28;20447;-85
2021/08/08 02:23:48;;;;;;;48.60;37.83;;;24.40;99.20;;;;;;5018342;28;20065;-83
2021/08/08 02:26:14;;;;;;;49.75;38.97;;;24.40;99.20;;;;;;5018433;28;20599;-83
2021/08/08 02:28:40;;;;;;;50.53;39.20;;;24.40;99.30;;;;;;5052324;28;20032;-83
2021/08/08 02:31:05;;;;;;;51.63;38.65;;;24.40;99.30;;;;;;5035002;28;20073;-83
2021/08/08 02:33:31;;;;;;;51.47;38.60;;;24.40;99.30;;;;;;5035023;28;20033;-83
2021/08/08 02:35:57;;;;;;;44.75;36.13;;;24.40;99.30;;;;;;5018142;28;20378;-83
2021/08/08 02:38:24;;;;;;;47.38;37.28;;;24.40;99.30;;;;;;5034520;28;20029;-83
2021/08/08 02:40:50;;;;;;;49.55;38.83;;;24.40;99.30;;;;;;5020279;28;20124;-83
2021/08/08 02:43:16;;;;;;;53.35;41.15;;;24.40;99.30;;;;;;5034892;28;20104;-83
2021/08/08 02:45:42;;;;;;;54.88;41.45;;;24.40;99.40;;;;;;5034138;28;20029;-83
2021/08/08 02:48:07;;;;;;;48.85;39.05;;;24.40;99.30;;;;;;5052403;28;20071;-83
2021/08/08 02:50:33;;;;;;;51.90;39.45;;;24.40;99.30;;;;;;5017902;28;20483;-84
2021/08/08 02:52:59;;;;;;;52.78;42.25;;;24.40;99.30;;;;;;5034414;28;20086;-83
2021/08/08 02:55:25;;;;;;;59.05;44.13;;;24.40;99.40;;;;;;5018091;28;20044;-83
2021/08/08 02:57:50;;;;;;;55.47;44.60;;;24.40;99.40;;;;;;5052048;28;20032;-83
2021/08/08 03:00:16;;;;;;;55.53;42.90;;;24.40;99.60;;;;;;5034420;28;20044;-83
2021/08/08 03:02:42;;;;;;;57.00;44.47;;;24.40;99.40;;;;;;5017682;28;20029;-83
2021/08/08 03:05:08;;;;;;;58.40;44.33;;;24.40;99.40;;;;;;5051872;28;20033;-83
2021/08/08 03:07:34;;;;;;;54.03;42.78;;;24.40;99.40;;;;;;5037138;28;20029;-83
2021/08/08 03:10:05;;;;;;;54.45;43.17;;;24.40;99.30;;;;;;5019167;28;20111;-83
2021/08/08 03:12:31;;;;;;;59.58;43.60;;;24.40;99.30;;;;;;5050294;28;20037;-84
2021/08/08 03:14:57;;;;;;;62.75;46.22;;;24.40;99.40;;;;;;5017821;28;20427;-83
2021/08/08 03:17:54;;;;;;;58.58;44.88;;;24.40;99.40;;;;;;5087687;27;1261050;-84
2021/08/08 03:20:20;;;;;;;58.65;44.20;;;24.40;99.40;;;;;;5075346;28;20040;-83
2021/08/08 03:22:46;;;;;;;56.60;44.45;;;24.40;99.40;;;;;;5110813;28;20024;-84
2021/08/08 03:25:12;;;;;;;59.63;44.72;;;24.40;99.40;;;;;;5091883;28;20032;-83
2021/08/08 03:27:38;;;;;;;56.08;43.60;;;24.40;99.30;;;;;;5074489;28;20043;-84
2021/08/08 03:30:08;;;;;;;55.45;42.28;;;24.40;99.30;;;;;;5091832;28;20024;-83
2021/08/08 03:32:35;;;;;;;56.90;43.42;;;24.40;99.30;;;;;;5075284;28;20062;-84
2021/08/08 03:35:01;;;;;;;59.50;45.15;;;24.40;99.30;;;;;;5110858;28;20028;-83
2021/08/08 03:37:26;;;;;;;55.35;42.85;;;24.40;99.30;;;;;;5091586;28;20077;-84
2021/08/08 03:39:52;;;;;;;55.08;43.50;;;24.40;99.30;;;;;;5090959;28;20040;-84
2021/08/08 03:42:18;;;;;;;54.17;42.20;;;24.40;99.30;;;;;;5109499;28;20024;-83
2021/08/08 03:44:44;;;;;;;56.70;43.65;;;24.40;99.30;;;;;;5091179;28;20020;-83
2021/08/08 03:47:10;;;;;;;55.13;41.95;;;24.30;99.30;;;;;;5113247;28;20032;-84
2021/08/08 03:49:35;;;;;;;57.05;43.20;;;24.40;99.30;;;;;;5074043;28;20488;-84
2021/08/08 03:52:01;;;;;;;55.67;42.92;;;24.30;99.30;;;;;;5091032;28;20057;-84
2021/08/08 03:54:27;;;;;;;56.80;42.30;;;24.30;99.30;;;;;;5109860;28;20066;-83
2021/08/08 03:56:53;;;;;;;53.08;41.28;;;24.40;99.30;;;;;;5071226;28;20048;-84
2021/08/08 03:59:19;;;;;;;56.58;43.95;;;24.40;99.30;;;;;;5092879;28;20465;-84
2021/08/08 04:01:45;;;;;;;56.25;43.35;;;24.30;99.20;;;;;;5090546;28;20026;-82
2021/08/08 04:04:10;;;;;;;56.03;42.97;;;24.30;99.20;;;;;;5092073;28;20036;-84
2021/08/08 04:06:36;;;;;;;56.40;43.30;;;24.30;99.20;;;;;;5109011;28;20036;-85
2021/08/08 04:09:02;;;;;;;58.83;43.28;;;24.30;99.20;;;;;;5073957;28;20024;-83
2021/08/08 04:11:28;;;;;;;50.60;40.10;;;24.30;99.40;;;;;;5091006;28;20024;-84
2021/08/08 04:13:54;;;;;;;52.03;41.38;;;24.30;99.20;;;;;;5073642;28;20024;-84
2021/08/08 04:16:19;;;;;;;55.92;40.60;;;24.30;99.20;;;;;;5090623;28;20056;-84
2021/08/08 04:18:45;;;;;;;50.70;39.95;;;24.40;99.20;;;;;;5090643;28;20058;-84
2021/08/08 04:21:11;;;;;;;50.92;39.28;;;24.30;99.30;;;;;;5090789;28;20028;-83
2021/08/08 04:23:37;;;;;;;49.80;38.63;;;24.40;99.30;;;;;;5090815;28;20093;-86
2021/08/08 04:26:02;;;;;;;54.78;42.47;;;24.40;99.30;;;;;;5110732;28;20040;-84
2021/08/08 04:28:28;;;;;;;56.63;45.40;;;24.30;99.30;;;;;;5085054;28;20035;-83
2021/08/08 04:30:54;;;;;;;64.63;47.63;;;24.40;99.40;;;;;;5095474;28;20024;-83
2021/08/08 04:33:19;;;;;;;60.83;48.05;;;24.30;99.50;;;;;;5060489;28;20032;-83
2021/08/08 04:35:45;;;;;;;63.28;47.90;;;24.30;99.50;;;;;;5060107;28;20400;-83
2021/08/08 04:38:11;;;;;;;67.78;50.97;;;24.30;99.50;;;;;;5076696;28;20445;-83
2021/08/08 04:40:36;;;;;;;58.13;46.92;;;24.40;99.60;;;;;;5060382;28;20040;-83
2021/08/08 04:43:05;;;;;;;56.63;45.03;;;24.40;99.60;;;;;;5076907;28;20027;-83
2021/08/08 04:45:31;;;;;;;59.63;45.70;;;24.30;99.50;;;;;;5095098;28;20045;-83
2021/08/08 04:47:57;;;;;;;58.47;44.90;;;24.30;99.60;;;;;;5078182;28;20473;-83
2021/08/08 04:50:22;;;;;;;60.53;44.53;;;24.40;99.60;;;;;;5076800;28;20028;-83
2021/08/08 04:52:48;;;;;;;59.03;44.35;;;24.40;99.60;;;;;;5076437;28;20032;-83
2021/08/08 04:55:15;;;;;;;54.63;42.10;;;24.30;99.60;;;;;;5094534;28;20028;-83
2021/08/08 04:57:41;;;;;;;54.10;41.17;;;24.30;99.60;;;;;;5061063;28;20088;-85
2021/08/08 05:00:10;;;;;;;53.30;40.40;;;24.40;99.60;;;;;;5076482;28;20036;-83
2021/08/08 05:02:36;;;;;;;52.78;40.17;;;24.30;99.60;;;;;;5076712;28;20077;-83
2021/08/08 05:05:04;;;;;;;47.33;37.88;;;24.40;99.50;;;;;;5077771;28;20024;-83
2021/08/08 05:07:29;;;;;;;49.45;38.78;;;24.30;99.60;;;;;;5094428;28;20470;-83
2021/08/08 05:09:55;;;;;;;50.85;38.03;;;24.30;99.50;;;;;;5076597;28;20039;-83
2021/08/08 05:12:21;;;;;;;48.83;37.65;;;24.30;99.50;;;;;;5077198;28;20043;-83
2021/08/08 05:14:46;;;;;;;51.95;39.55;;;24.30;99.50;;;;;;5076162;28;20473;-84
2021/08/08 05:17:12;;;;;;;49.20;37.13;;;24.40;99.50;;;;;;5075710;28;20066;-83
2021/08/08 05:19:38;;;;;;;47.25;36.03;;;24.30;99.50;;;;;;5078057;28;20032;-83
2021/08/08 05:22:03;;;;;;;42.83;34.60;;;24.30;99.50;;;;;;5078780;28;20089;-83
2021/08/08 05:24:29;;;;;;;46.08;35.40;;;24.30;99.40;;;;;;5076702;28;20040;-83
2021/08/08 05:26:56;;;;;;;47.50;35.60;;;24.30;99.40;;;;;;5075952;28;20046;-84
2021/08/08 05:29:23;;;;;;;46.65;34.60;;;24.40;99.40;;;;;;5043486;28;20032;-83
2021/08/08 05:31:49;;;;;;;44.78;34.00;;;24.30;99.40;;;;;;5075653;28;20020;-84
2021/08/08 05:34:15;;;;;;;45.63;34.85;;;24.30;99.40;;;;;;5075751;28;20119;-83
2021/08/08 05:36:40;;;;;;;43.28;34.75;;;24.30;99.40;;;;;;5093919;28;20060;-83
2021/08/08 05:39:06;;;;;;;43.88;34.78;;;24.30;99.40;;;;;;5074945;28;20040;-83
2021/08/08 05:41:32;;;;;;;40.60;32.47;;;24.30;99.40;;;;;;5076451;28;20066;-83
2021/08/08 05:43:57;;;;;;;42.58;34.08;;;24.30;99.40;;;;;;5058720;28;20216;-83
2021/08/08 05:46:23;;;;;;;44.92;34.97;;;24.30;99.40;;;;;;5075866;28;20060;-83
2021/08/08 05:48:48;;;;;;;43.10;33.85;;;24.30;99.30;;;;;;5093681;28;20036;-83
2021/08/08 05:51:14;;;;;;;42.83;32.78;;;24.30;99.60;;;;;;5059088;28;20330;-83
2021/08/08 05:53:40;;;;;;;41.20;30.92;;;24.30;99.30;;;;;;5042233;28;20027;-83
2021/08/08 05:56:05;;;;;;;39.90;30.00;;;24.30;99.30;;;;;;5095075;28;20060;-83
2021/08/08 05:58:31;;;;;;;40.55;30.30;;;24.30;99.30;;;;;;5076229;28;20034;-83
2021/08/08 06:00:56;;;;;;;39.40;29.58;;;24.40;99.30;;;;;;5093101;28;20070;-83
2021/08/08 06:03:22;;;;;;;35.20;28.33;;;24.30;99.30;;;;;;5093934;28;20349;-83
2021/08/08 06:05:48;;;;;;;40.70;31.30;;;24.30;99.20;;;;;;5058530;28;20047;-83
2021/08/08 06:08:13;;;;;;;43.75;33.65;;;24.40;99.20;;;;;;5058378;28;20406;-83
2021/08/08 06:10:39;;;;;;;42.97;34.75;;;24.40;99.20;;;;;;5075458;28;20028;-83
2021/08/08 06:13:05;;;;;;;43.92;34.25;;;24.40;99.20;;;;;;5093486;28;20031;-83
2021/08/08 06:15:30;;;;;;;43.60;33.88;;;24.40;99.20;;;;;;5093359;28;20109;-82
2021/08/08 06:17:56;;;;;;;44.97;35.20;;;24.40;99.20;;;;;;5093214;28;20393;-83
2021/08/08 06:20:22;;;;;;;44.67;33.97;;;24.40;99.10;;;;;;5074958;28;20489;-84
2021/08/08 06:22:48;;;;;;;41.67;33.15;;;24.30;99.10;;;;;;5093534;28;20028;-84
2021/08/08 06:25:14;;;;;;;40.38;31.73;;;24.30;99.00;;;;;;5074862;28;20035;-83
2021/08/08 06:27:40;;;;;;;39.90;30.98;;;24.40;99.10;;;;;;5094739;28;20039;-83
2021/08/08 06:30:06;;;;;;;38.55;29.48;;;24.40;99.20;;;;;;5058044;28;20024;-83
2021/08/08 06:32:32;;;;;;;34.92;26.95;;;24.40;99.20;;;;;;5074767;28;20031;-83
2021/08/08 06:34:58;;;;;;;30.42;22.92;;;24.40;99.40;;;;;;5074626;28;20020;-84
2021/08/08 06:37:23;;;;;;;31.25;21.45;;;24.30;99.20;;;;;;5058091;28;20632;-83
2021/08/08 06:39:49;;;;;;;26.58;18.75;;;24.40;99.20;;;;;;5093349;28;20409;-83
2021/08/08 06:42:14;;;;;;;22.63;16.05;;;24.40;99.10;;;;;;5058689;28;20446;-83
2021/08/08 06:44:40;;;;;;;20.38;14.18;;;24.30;99.10;;;;;;5075100;28;20473;-83
2021/08/08 06:47:06;;;;;;;18.98;12.40;;;24.40;99.10;;;;;;5074464;28;20036;-83
2021/08/08 06:49:31;;;;;;;17.20;11.13;;;24.30;99.00;;;;;;5056280;28;20546;-83
2021/08/08 06:51:57;;;;;;;14.95;9.45;;;24.30;98.90;;;;;;5058795;28;20469;-83
2021/08/08 06:54:23;;;;;;;11.55;7.28;;;24.40;98.90;;;;;;5092220;28;20032;-82
2021/08/08 06:56:49;;;;;;;12.15;6.70;;;24.30;98.80;;;;;;5041426;28;20418;-82
2021/08/08 06:59:14;;;;;;;9.18;6.00;;;24.40;98.80;;;;;;5058467;28;20087;-82
2021/08/08 07:01:40;;;;;;;10.35;5.80;;;24.30;98.70;;;;;;5073770;28;20497;-83
2021/08/08 07:04:06;;;;;;;9.35;5.40;;;24.30;98.60;;;;;;5057698;28;20295;-82
2021/08/08 07:06:31;;;;;;;7.63;4.38;;;24.30;98.60;;;;;;5092528;28;20031;-83
2021/08/08 07:08:57;;;;;;;10.88;4.50;;;24.30;98.50;;;;;;5074172;28;20024;-84
2021/08/08 07:11:23;;;;;;;7.85;4.22;;;24.30;98.50;;;;;;5091878;28;20032;-83
2021/08/08 07:13:49;;;;;;;7.10;4.00;;;24.30;98.50;;;;;;5074265;28;20094;-82
2021/08/08 07:16:14;;;;;;;7.28;3.92;;;24.30;98.40;;;;;;5056133;28;20466;-82
2021/08/08 07:18:43;;;;;;;9.05;3.85;;;24.30;98.40;;;;;;5074429;28;20031;-82
2021/08/08 07:21:08;;;;;;;8.13;4.13;;;24.30;98.30;;;;;;5074122;28;20027;-83
2021/08/08 07:23:34;;;;;;;10.48;4.18;;;24.30;98.30;;;;;;5074733;28;20032;-83
2021/08/08 07:25:59;;;;;;;7.88;3.92;;;24.30;98.20;;;;;;5074462;28;20115;-84
2021/08/08 07:28:26;;;;;;;8.57;3.75;;;24.30;98.20;;;;;;5041011;28;20457;-82
2021/08/08 07:30:52;;;;;;;9.77;4.28;;;24.30;98.10;;;;;;5074264;28;20032;-83
2021/08/08 07:33:17;;;;;;;7.53;3.60;;;24.30;98.10;;;;;;5074059;28;20024;-83
2021/08/08 07:35:43;;;;;;;10.18;3.95;;;24.30;98.10;;;;;;5057903;28;20029;-83
2021/08/08 07:38:09;;;;;;;7.82;3.60;;;24.30;98.00;;;;;;5040948;28;20036;-83
2021/08/08 07:40:35;;;;;;;6.63;3.50;;;24.30;98.00;;;;;;5074118;28;20500;-84
2021/08/08 07:43:00;;;;;;;9.38;3.55;;;24.30;97.90;;;;;;5074203;28;20386;-86
2021/08/08 07:45:26;;;;;;;5.45;2.83;;;24.30;97.90;;;;;;5074111;28;20367;-83
2021/08/08 07:47:52;;;;;;;8.48;3.45;;;24.30;97.80;;;;;;5075423;28;20051;-82
2021/08/08 07:50:17;;;;;;;7.10;3.00;;;24.30;97.80;;;;;;5074148;28;20548;-82
2021/08/08 07:52:43;;;;;;;7.03;3.00;;;24.30;97.80;;;;;;5092352;28;20033;-82
2021/08/08 07:55:09;;;;;;;10.15;3.53;;;24.30;97.70;;;;;;5091505;28;20038;-83
2021/08/08 07:57:35;;;;;;;6.82;3.08;;;24.30;97.70;;;;;;5056896;28;20028;-82
2021/08/08 08:00:02;;;;;;;6.03;2.63;;;24.30;97.60;;;;;;5073780;28;20032;-82
2021/08/08 08:02:28;;;;;;;8.20;3.28;;;24.30;97.60;;;;;;5075504;28;20024;-82
2021/08/08 08:04:53;;;;;;;5.50;2.65;;;24.30;97.50;;;;;;5078151;28;20111;-82
2021/08/08 08:07:19;;;;;;;8.68;3.58;;;24.30;97.50;;;;;;5077183;28;20458;-83
2021/08/08 08:09:45;;;;;;;6.53;3.17;;;24.30;97.50;;;;;;5078417;28;20032;-83
2021/08/08 08:12:10;;;;;;;6.10;3.70;;;24.30;97.50;;;;;;5076956;28;20476;-82
2021/08/08 08:14:36;;;;;;;7.65;3.58;;;24.30;97.50;;;;;;5077790;28;20389;-82
2021/08/08 08:17:02;;;;;;;7.95;3.40;;;24.30;97.60;;;;;;5077031;28;20058;-82
2021/08/08 08:19:28;;;;;;;8.82;3.58;;;24.30;97.60;;;;;;5077168;28;20086;-83
2021/08/08 08:21:53;;;;;;;7.60;3.80;;;24.30;97.80;;;;;;5077469;28;20513;-83
2021/08/08 08:24:19;;;;;;;9.75;4.82;;;24.30;97.60;;;;;;5077042;28;20073;-83
2021/08/08 08:26:45;;;;;;;8.93;4.15;;;24.30;97.60;;;;;;5077411;28;20386;-83
2021/08/08 08:29:10;;;;;;;7.70;3.45;;;24.30;97.70;;;;;;5077044;28;20160;-83
2021/08/08 08:31:36;;;;;;;7.20;3.67;;;24.30;97.70;;;;;;5077206;28;20079;-83
2021/08/08 08:34:02;;;;;;;9.50;3.97;;;24.30;97.70;;;;;;5060474;28;20039;-83
2021/08/08 08:36:28;;;;;;;9.73;4.68;;;24.30;97.70;;;;;;5076830;28;20054;-82
2021/08/08 08:38:54;;;;;;;10.60;4.72;;;24.30;97.80;;;;;;5078428;28;20470;-82
2021/08/08 08:41:27;;;;;;;9.52;4.13;;;24.30;97.80;;;;;;5076833;28;20166;-82
2021/08/08 08:43:54;;;;;;;7.53;4.00;;;24.30;97.90;;;;;;5078876;28;20025;-82
2021/08/08 08:46:21;;;;;;;8.50;4.00;;;24.30;97.90;;;;;;5076567;28;20039;-82
2021/08/08 08:48:48;;;;;;;8.60;3.85;;;24.40;98.00;;;;;;5077488;28;20028;-83
2021/08/08 08:51:15;;;;;;;8.95;4.20;;;24.40;98.10;;;;;;5076490;28;20037;-83
2021/08/08 08:53:42;;;;;;;9.32;3.80;;;24.30;98.20;;;;;;5076802;28;20040;-82
2021/08/08 08:56:09;;;;;;;13.55;4.40;;;24.30;98.30;;;;;;5076727;28;20039;-82
2021/08/08 08:58:35;;;;;;;7.03;3.58;;;24.30;98.40;;;;;;5076714;28;20032;-82
2021/08/08 09:01:01;;;;;;;8.27;3.28;;;24.30;98.50;;;;;;5076456;28;20028;-82
2021/08/08 09:03:27;;;;;;;7.50;3.33;;;24.40;98.90;;;;;;5076412;28;20110;-82
2021/08/08 09:05:52;;;;;;;7.20;3.55;;;24.40;98.80;;;;;;5094756;28;20111;-82
2021/08/08 09:08:18;;;;;;;9.00;3.83;;;24.40;99.10;;;;;;5093951;28;20032;-82
2021/08/08 09:10:44;;;;;;;9.30;3.20;;;24.40;99.20;;;;;;5079633;28;20036;-82
2021/08/08 09:13:10;;;;;;;5.25;3.08;;;24.40;99.30;;;;;;5042670;28;20051;-83
2021/08/08 09:15:44;;;;;;;7.20;3.40;;;24.40;99.20;;;;;;5075765;28;20033;-82
2021/08/08 09:18:18;;;;;;;4.93;2.97;;;24.50;99.20;;;;;;5094796;28;20127;-82
2021/08/08 09:20:45;;;;;;;6.95;3.28;;;24.50;99.10;;;;;;5077958;28;20076;-82
2021/08/08 09:23:12;;;;;;;7.57;3.40;;;24.50;99.10;;;;;;5075519;28;20071;-82
2021/08/08 09:25:54;;;;;;;5.95;2.80;;;24.50;99.10;;;;;;5058866;28;20123;-83
2021/08/08 09:28:28;;;;;;;7.20;2.97;;;24.50;99.10;;;;;;5074635;28;20024;-83
2021/08/08 09:30:54;;;;;;;5.17;3.30;;;24.50;99.10;;;;;;5093902;28;20379;-82
2021/08/08 09:33:20;;;;;;;6.75;3.28;;;24.50;99.20;;;;;;5092928;28;20107;-83
2021/08/08 09:35:51;;;;;;;8.20;3.60;;;24.50;99.20;;;;;;5075752;28;20581;-82
2021/08/08 09:38:18;;;;;;;5.80;3.10;;;24.50;99.20;;;;;;5075431;28;20122;-85
2021/08/08 09:40:58;;;;;;;6.22;3.25;;;24.50;99.20;;;;;;5075644;28;20024;-83
2021/08/08 09:43:29;;;;;;;7.47;3.80;;;24.50;99.30;;;;;;5074322;28;20375;-83
2021/08/08 09:45:55;;;;;;;7.50;3.45;;;24.50;99.30;;;;;;5075785;28;20482;-83
2021/08/08 09:48:21;;;;;;;6.90;3.10;;;24.50;99.30;;;;;;5057552;28;20028;-84
2021/08/08 09:50:48;;;;;;;5.10;2.78;;;24.50;99.30;;;;;;5092400;28;20510;-83
2021/08/08 09:53:19;;;;;;;7.05;3.60;;;24.50;99.20;;;;;;5074453;28;20032;-83
2021/08/08 09:55:45;;;;;;;6.38;3.58;;;24.50;99.10;;;;;;5075733;28;20115;-83
2021/08/08 09:58:11;;;;;;;8.55;4.00;;;24.50;99.00;;;;;;5058063;28;20152;-83
2021/08/08 10:00:38;;;;;;;9.52;3.75;;;24.50;99.10;;;;;;5093073;28;20041;-83
2021/08/08 10:03:06;;;;;;;9.05;3.78;;;24.50;99.10;;;;;;5059116;28;20036;-83
2021/08/08 10:05:38;;;;;;;8.20;3.40;;;24.50;99.10;;;;;;5057191;28;20152;-83
2021/08/08 10:08:15;;;;;;;8.00;3.22;;;24.50;99.00;;;;;;5076774;28;20470;-83
2021/08/08 10:10:43;;;;;;;6.50;3.13;;;24.50;98.90;;;;;;5077003;28;20028;-84
2021/08/08 10:13:24;;;;;;;10.27;4.55;;;24.50;98.90;;;;;;5080850;28;20236;-83
2021/08/08 10:15:52;;;;;;;8.15;4.05;;;24.50;98.90;;;;;;5074805;28;20060;-84
2021/08/08 10:18:23;;;;;;;8.50;4.10;;;24.50;98.90;;;;;;5075158;28;20168;-83
2021/08/08 10:20:50;;;;;;;9.30;3.80;;;24.60;98.80;;;;;;5093272;28;20020;-82
2021/08/08 10:23:17;;;;;;;8.13;3.50;;;24.60;98.80;;;;;;5093406;28;20024;-83
2021/08/08 10:25:49;;;;;;;8.60;4.28;;;24.60;98.80;;;;;;5058087;28;20035;-83
2021/08/08 10:28:15;;;;;;;8.02;4.13;;;24.60;98.80;;;;;;5075105;28;20024;-83
2021/08/08 10:30:41;;;;;;;8.13;3.45;;;24.60;98.80;;;;;;5074536;28;20045;-82
2021/08/08 10:33:08;;;;;;;8.23;3.72;;;24.60;98.80;;;;;;5058512;28;20496;-83
2021/08/08 10:35:51;;;;;;;15.35;3.53;;;24.60;98.90;;;;;;5095798;28;20051;-83
2021/08/08 10:38:17;;;;;;;7.43;3.58;;;24.60;98.80;;;;;;5058835;28;20039;-83
2021/08/08 10:40:46;;;;;;;8.15;3.95;;;24.60;98.90;;;;;;5057988;28;20032;-83
2021/08/08 10:43:32;;;;;;;14.95;4.82;;;24.60;98.90;;;;;;5075001;28;20035;-83
2021/08/08 10:46:11;;;;;;;11.68;4.00;;;24.60;98.80;;;;;;5058433;28;20134;-83
2021/08/08 10:48:39;;;;;;;9.43;4.00;;;24.60;98.70;;;;;;5091809;28;20036;-83
2021/08/08 10:51:23;;;;;;;10.18;3.97;;;24.60;98.70;;;;;;5042005;28;20058;-83
2021/08/08 10:53:59;;;;;;;;;;;24.60;98.40;;;;;;5076267;28;20070;-83
2021/08/08 10:56:37;;;;;;;9.25;3.50;;;24.60;98.20;;;;;;5075494;28;19919;-83
2021/08/08 10:59:15;;;;;;;11.30;3.92;;;24.50;98.20;;;;;;5059456;28;20109;-83
2021/08/08 11:01:40;;;;;;;6.85;2.80;;;24.60;98.00;;;;;;5092537;28;20103;-83
2021/08/08 11:04:07;;;;;;;4.28;2.53;;;24.60;97.90;;;;;;5091910;28;20127;-83
2021/08/08 11:06:35;;;;;;;8.07;2.85;;;24.60;97.80;;;;;;5075065;28;20031;-83
2021/08/08 11:09:02;;;;;;;6.55;2.80;;;24.60;97.70;;;;;;5092536;28;20025;-82
2021/08/08 11:11:36;;;;;;;7.10;2.40;;;24.60;97.60;;;;;;5074339;28;20028;-86
2021/08/08 11:14:16;;;;;;;5.45;2.72;;;24.60;97.60;;;;;;5092744;28;20458;-82
2021/08/08 11:16:58;;;;;;;5.22;2.45;;;24.60;97.50;;;;;;5076075;28;20056;-82
2021/08/08 11:19:38;;;;;;;9.90;2.80;;;24.60;97.40;;;;;;5070891;28;20119;-81
2021/08/08 11:22:06;;;;;;;7.78;2.88;;;24.60;97.40;;;;;;5071352;28;20134;-81
2021/08/08 11:24:31;;;;;;;6.45;2.72;;;24.60;97.40;;;;;;5070515;28;20025;-82
2021/08/08 11:26:57;;;;;;;6.30;2.65;;;24.60;97.40;;;;;;5072429;28;20093;-82
2021/08/08 11:29:23;;;;;;;4.75;2.42;;;24.60;97.40;;;;;;5057490;28;20117;-82
2021/08/08 11:31:57;;;;;;;5.05;2.60;;;24.70;97.40;;;;;;5071655;28;20079;-81
2021/08/08 11:34:24;;;;;;;4.80;2.40;;;24.60;97.50;;;;;;5077472;28;20020;-82
2021/08/08 11:36:50;;;;;;;5.88;2.42;;;24.70;97.40;;;;;;5053934;28;20037;-82
2021/08/08 11:39:15;;;;;;;7.78;2.60;;;24.60;97.40;;;;;;5062294;28;20131;-82
2021/08/08 11:41:42;;;;;;;8.02;2.90;;;24.60;97.30;;;;;;5057634;28;20032;-82
2021/08/08 11:44:11;;;;;;;6.47;2.78;;;24.70;97.40;;;;;;5076341;28;20021;-81
2021/08/08 11:46:41;;;;;;;6.90;2.92;;;24.60;97.30;;;;;;5074527;28;20036;-82
2021/08/08 11:49:17;;;;;;;5.72;2.20;;;24.60;97.20;;;;;;5075039;28;20040;-82
2021/08/08 11:51:56;;;;;;;5.75;2.28;;;24.60;97.20;;;;;;5076289;28;20013;-82
2021/08/08 11:54:33;;;;;;;6.53;2.65;;;24.60;97.20;;;;;;5077426;28;20037;-82
2021/08/08 11:56:59;;;;;;;5.80;2.30;;;24.60;97.20;;;;;;5075566;28;20032;-82
2021/08/08 11:59:33;;;;;;;7.13;2.45;;;24.60;97.20;;;;;;5058189;28;20033;-88
2021/08/08 12:02:08;;;;;;;8.57;2.80;;;24.60;97.20;;;;;;5074719;28;20081;-86
2021/08/08 12:04:41;;;;;;;6.28;2.92;;;24.60;97.20;;;;;;5074963;28;20074;-87
2021/08/08 12:07:09;;;;;;;7.95;3.45;;;24.60;97.10;;;;;;5057906;28;20044;-86
2021/08/08 12:09:36;;;;;;;6.25;3.50;;;24.60;97.00;;;;;;5073882;28;20462;-87
2021/08/08 12:12:04;;;;;;;8.48;4.00;;;24.60;96.80;;;;;;5075256;28;20475;-86
2021/08/08 12:14:37;;;;;;;8.65;4.53;;;24.60;96.80;;;;;;5076124;28;20079;-86
2021/08/08 12:17:12;;;;;;;7.13;4.47;;;24.60;96.90;;;;;;5075332;28;20110;-86
2021/08/08 12:19:40;;;;;;;8.70;4.55;;;24.60;96.80;;;;;;5061365;28;20021;-86
2021/08/08 12:22:17;;;;;;;6.30;4.30;;;24.60;96.80;;;;;;5079368;28;20012;-86
2021/08/08 12:24:46;;;;;;;6.93;4.07;;;24.60;96.80;;;;;;5074055;28;20585;-87
2021/08/08 12:27:28;;;;;;;6.28;4.25;;;24.50;96.80;;;;;;5075508;28;20036;-86
2021/08/08 12:29:57;;;;;;;10.43;4.72;;;24.50;96.80;;;;;;5075864;28;20043;-86
2021/08/08 12:32:22;;;;;;;8.13;4.20;;;24.60;96.80;;;;;;5075617;28;20049;-86
2021/08/08 12:34:50;;;;;;;10.77;5.05;;;24.50;96.80;;;;;;5056745;28;20041;-86
2021/08/08 12:37:20;;;;;;;9.10;4.97;;;24.50;96.90;;;;;;5074025;28;20036;-87